sensor_id;sensor_type;location;lat;lon;timestamp;pressure;altitude;pressure_sealevel;temperature;humidity
64933;BME280;51446;53.850;10.662;2023-04-23T00:00:55;100447.34;;;15.07;100.00
64933;BME280;51446;53.850;10.662;2023-04-23T00:03:22;100453.56;;;15.01;100.00
64933;BME280;51446;53.850;10.662;2023-04-23T00:05:50;100443.84;;;15.05;100.00
64933;BME280;51446;53.850;10.662;2023-04-23T00:08:17;100443.00;;;15.01;100.00
64933;BME280;51446;53.850;10.662;2023-04-23T00:10:42;100450.97;;;14.97;100.00
64933;BME280;51446;53.850;10.662;2023-04-23T00:13:08;100440.44;;;14.90;100.00
64933;BME280;51446;53.850;10.662;2023-04-23T00:15:34;100443.97;;;14.89;100.00
64933;BME280;51446;53.850;10.662;2023-04-23T00:17:59;100445.81;;;14.80;100.00
64933;BME280;51446;53.850;10.662;2023-04-23T00:20:24;100442.22;;;14.87;100.00
64933;BME280;51446;53.850;10.662;2023-04-23T00:22:50;100446.59;;;14.91;100.00
64933;BME280;51446;53.850;10.662;2023-04-23T00:25:15;100444.88;;;14.87;100.00
64933;BME280;51446;53.850;10.662;2023-04-23T00:27:40;100439.59;;;14.81;100.00
64933;BME280;51446;53.850;10.662;2023-04-23T00:30:06;100441.38;;;14.82;100.00
64933;BME280;51446;53.850;10.662;2023-04-23T00:32:33;100444.03;;;14.80;100.00
64933;BME280;51446;53.850;10.662;2023-04-23T00:34:58;100433.50;;;14.74;100.00
64933;BME280;51446;53.850;10.662;2023-04-23T00:37:23;100444.06;;;14.74;100.00
64933;BME280;51446;53.850;10.662;2023-04-23T00:39:48;100437.91;;;14.70;100.00
64933;BME280;51446;53.850;10.662;2023-04-23T00:42:14;100442.34;;;14.67;100.00
64933;BME280;51446;53.850;10.662;2023-04-23T00:44:41;100436.19;;;14.69;100.00
64933;BME280;51446;53.850;10.662;2023-04-23T00:47:07;100422.13;;;14.67;100.00
64933;BME280;51446;53.850;10.662;2023-04-23T00:49:33;100431.78;;;14.68;100.00
64933;BME280;51446;53.850;10.662;2023-04-23T00:51:58;100439.72;;;14.67;100.00
64933;BME280;51446;53.850;10.662;2023-04-23T00:54:25;100439.75;;;14.64;100.00
64933;BME280;51446;53.850;10.662;2023-04-23T00:56:50;100426.53;;;14.65;100.00
64933;BME280;51446;53.850;10.662;2023-04-23T00:59:16;100429.19;;;14.62;100.00
64933;BME280;51446;53.850;10.662;2023-04-23T01:01:41;100425.66;;;14.57;100.00
64933;BME280;51446;53.850;10.662;2023-04-23T01:04:10;100430.03;;;14.61;100.00
64933;BME280;51446;53.850;10.662;2023-04-23T01:06:37;100423.91;;;14.61;100.00
64933;BME280;51446;53.850;10.662;2023-04-23T01:12:24;100416.00;;;14.62;100.00
64933;BME280;51446;53.850;10.662;2023-04-23T01:14:49;100428.31;;;14.62;100.00
64933;BME280;51446;53.850;10.662;2023-04-23T01:17:15;100418.63;;;14.56;100.00
64933;BME280;51446;53.850;10.662;2023-04-23T01:19:40;100422.19;;;14.53;100.00
64933;BME280;51446;53.850;10.662;2023-04-23T01:22:10;100420.44;;;14.52;100.00
64933;BME280;51446;53.850;10.662;2023-04-23T01:24:36;100422.16;;;14.52;100.00
64933;BME280;51446;53.850;10.662;2023-04-23T01:27:02;100418.66;;;14.51;100.00
64933;BME280;51446;53.850;10.662;2023-04-23T01:29:28;100418.66;;;14.51;100.00
64933;BME280;51446;53.850;10.662;2023-04-23T01:31:54;100418.69;;;14.48;100.00
64933;BME280;51446;53.850;10.662;2023-04-23T01:34:21;100423.09;;;14.43;100.00
64933;BME280;51446;53.850;10.662;2023-04-23T01:36:46;100415.16;;;14.46;100.00
64933;BME280;51446;53.850;10.662;2023-04-23T01:39:11;100427.53;;;14.39;100.00
64933;BME280;51446;53.850;10.662;2023-04-23T01:41:37;100427.53;;;14.41;100.00
64933;BME280;51446;53.850;10.662;2023-04-23T01:44:03;100430.16;;;14.39;100.00
64933;BME280;51446;53.850;10.662;2023-04-23T01:46:29;100429.28;;;14.40;100.00
64933;BME280;51446;53.850;10.662;2023-04-23T01:48:54;100433.72;;;14.34;100.00
64933;BME280;51446;53.850;10.662;2023-04-23T01:51:20;100430.22;;;14.33;100.00
64933;BME280;51446;53.850;10.662;2023-04-23T01:53:47;100429.34;;;14.27;100.00
64933;BME280;51446;53.850;10.662;2023-04-23T01:56:15;100430.28;;;14.18;100.00
64933;BME280;51446;53.850;10.662;2023-04-23T01:58:40;100429.47;;;14.05;100.00
64933;BME280;51446;53.850;10.662;2023-04-23T02:01:05;100429.50;;;13.99;100.00
64933;BME280;51446;53.850;10.662;2023-04-23T02:03:31;100429.50;;;13.90;100.00
64933;BME280;51446;53.850;10.662;2023-04-23T02:05:58;100432.13;;;13.91;100.00
64933;BME280;51446;53.850;10.662;2023-04-23T02:08:24;100424.22;;;13.91;100.00
64933;BME280;51446;53.850;10.662;2023-04-23T02:10:50;100431.28;;;13.87;100.00
64933;BME280;51446;53.850;10.662;2023-04-23T02:13:15;100432.13;;;13.91;100.00
64933;BME280;51446;53.850;10.662;2023-04-23T02:15:40;100436.56;;;13.78;100.00
64933;BME280;51446;53.850;10.662;2023-04-23T02:18:07;100430.47;;;13.70;100.00
64933;BME280;51446;53.850;10.662;2023-04-23T02:20:32;100432.22;;;13.62;100.00
64933;BME280;51446;53.850;10.662;2023-04-23T02:23:00;100429.56;;;13.66;100.00
64933;BME280;51446;53.850;10.662;2023-04-23T02:25:26;100432.22;;;13.62;100.00
64933;BME280;51446;53.850;10.662;2023-04-23T02:27:51;100422.59;;;13.48;100.00
64933;BME280;51446;53.850;10.662;2023-04-23T02:30:16;100424.34;;;13.48;100.00
64933;BME280;51446;53.850;10.662;2023-04-23T02:32:42;100426.09;;;13.47;100.00
64933;BME280;51446;53.850;10.662;2023-04-23T02:35:08;100425.22;;;13.45;100.00
64933;BME280;51446;53.850;10.662;2023-04-23T02:37:35;100431.34;;;13.33;100.00
64933;BME280;51446;53.850;10.662;2023-04-23T02:40:01;100435.75;;;13.28;100.00
64933;BME280;51446;53.850;10.662;2023-04-23T02:42:28;100435.78;;;13.34;100.00
64933;BME280;51446;53.850;10.662;2023-04-23T02:44:53;100437.50;;;13.26;100.00
64933;BME280;51446;53.850;10.662;2023-04-23T02:47:18;100432.22;;;13.26;100.00
64933;BME280;51446;53.850;10.662;2023-04-23T02:49:43;100426.97;;;13.25;100.00
64933;BME280;51446;53.850;10.662;2023-04-23T02:52:09;100430.50;;;13.25;100.00
64933;BME280;51446;53.850;10.662;2023-04-23T02:54:35;100432.25;;;13.23;100.00
64933;BME280;51446;53.850;10.662;2023-04-23T02:57:04;100431.38;;;13.19;100.00
64933;BME280;51446;53.850;10.662;2023-04-23T02:59:29;100433.13;;;13.33;100.00
64933;BME280;51446;53.850;10.662;2023-04-23T03:01:54;100426.09;;;13.27;100.00
64933;BME280;51446;53.850;10.662;2023-04-23T03:04:19;100423.47;;;13.27;100.00
64933;BME280;51446;53.850;10.662;2023-04-23T03:06:45;100426.97;;;13.25;100.00
64933;BME280;51446;53.850;10.662;2023-04-23T03:09:10;100432.25;;;13.23;100.00
64933;BME280;51446;53.850;10.662;2023-04-23T03:11:36;100436.63;;;13.15;100.00
64933;BME280;51446;53.850;10.662;2023-04-23T03:14:02;100427.88;;;13.36;100.00
64933;BME280;51446;53.850;10.662;2023-04-23T03:16:28;100433.13;;;13.14;100.00
64933;BME280;51446;53.850;10.662;2023-04-23T03:18:54;100448.03;;;13.31;100.00
64933;BME280;51446;53.850;10.662;2023-04-23T03:21:19;100453.28;;;13.29;100.00
64933;BME280;51446;53.850;10.662;2023-04-23T03:23:45;100458.56;;;13.09;100.00
64933;BME280;51446;53.850;10.662;2023-04-23T03:26:10;100468.16;;;12.73;100.00
64933;BME280;51446;53.850;10.662;2023-04-23T03:28:35;100465.41;;;12.31;100.00
64933;BME280;51446;53.850;10.662;2023-04-23T03:31:00;100468.09;;;12.33;100.00
64933;BME280;51446;53.850;10.662;2023-04-23T03:33:25;100469.78;;;12.22;100.00
64933;BME280;51446;53.850;10.662;2023-04-23T03:35:51;100473.25;;;12.11;100.00
64933;BME280;51446;53.850;10.662;2023-04-23T03:38:16;100468.84;;;12.06;100.00
64933;BME280;51446;53.850;10.662;2023-04-23T03:40:41;100464.38;;;11.95;100.00
64933;BME280;51446;53.850;10.662;2023-04-23T03:43:06;100464.44;;;12.00;100.00
64933;BME280;51446;53.850;10.662;2023-04-23T03:45:32;100464.44;;;11.99;100.00
64933;BME280;51446;53.850;10.662;2023-04-23T03:47:57;100470.53;;;11.94;100.00
64933;BME280;51446;53.850;10.662;2023-04-23T03:50:22;100462.56;;;11.87;100.00
64933;BME280;51446;53.850;10.662;2023-04-23T03:52:48;100474.75;;;11.75;100.00
64933;BME280;51446;53.850;10.662;2023-04-23T03:55:13;100485.31;;;11.80;100.00
64933;BME280;51446;53.850;10.662;2023-04-23T03:57:39;100480.03;;;11.77;100.00
64933;BME280;51446;53.850;10.662;2023-04-23T04:00:05;100487.78;;;11.55;100.00
64933;BME280;51446;53.850;10.662;2023-04-23T04:02:37;100486.88;;;11.53;100.00
64933;BME280;51446;53.850;10.662;2023-04-23T04:05:04;100488.72;;;11.68;100.00
64933;BME280;51446;53.850;10.662;2023-04-23T04:07:29;100488.69;;;11.63;100.00
64933;BME280;51446;53.850;10.662;2023-04-23T04:09:55;100490.34;;;11.48;100.00
64933;BME280;51446;53.850;10.662;2023-04-23T04:12:20;100486.66;;;11.25;100.00
64933;BME280;51446;53.850;10.662;2023-04-23T04:14:45;100491.00;;;11.25;100.00
64933;BME280;51446;53.850;10.662;2023-04-23T04:17:10;100497.22;;;11.32;100.00
64933;BME280;51446;53.850;10.662;2023-04-23T04:19:36;100498.97;;;11.31;100.00
64933;BME280;51446;53.850;10.662;2023-04-23T04:22:02;100498.88;;;11.25;100.00
64933;BME280;51446;53.850;10.662;2023-04-23T04:24:28;100498.88;;;11.25;100.00
64933;BME280;51446;53.850;10.662;2023-04-23T04:26:56;100509.44;;;11.28;100.00
64933;BME280;51446;53.850;10.662;2023-04-23T04:29:22;100504.25;;;11.36;100.00
64933;BME280;51446;53.850;10.662;2023-04-23T04:31:47;100508.38;;;11.09;100.00
64933;BME280;51446;53.850;10.662;2023-04-23T04:34:13;100509.47;;;11.31;100.00
64933;BME280;51446;53.850;10.662;2023-04-23T04:36:39;100516.22;;;11.04;100.00
64933;BME280;51446;53.850;10.662;2023-04-23T04:39:05;100513.72;;;11.17;100.00
64933;BME280;51446;53.850;10.662;2023-04-23T04:41:32;100515.50;;;11.19;100.00
64933;BME280;51446;53.850;10.662;2023-04-23T04:43:58;100523.41;;;11.25;100.00
64933;BME280;51446;53.850;10.662;2023-04-23T04:46:23;100527.69;;;11.14;100.00
64933;BME280;51446;53.850;10.662;2023-04-23T04:48:50;100524.00;;;10.95;100.00
64933;BME280;51446;53.850;10.662;2023-04-23T04:51:15;100530.47;;;10.50;100.00
64933;BME280;51446;53.850;10.662;2023-04-23T04:53:41;100520.16;;;10.62;100.00
64933;BME280;51446;53.850;10.662;2023-04-23T04:56:07;100519.34;;;10.68;100.00
64933;BME280;51446;53.850;10.662;2023-04-23T04:58:32;100527.94;;;10.56;100.00
64933;BME280;51446;53.850;10.662;2023-04-23T05:00:58;100532.44;;;10.66;100.00
64933;BME280;51446;53.850;10.662;2023-04-23T05:03:23;100536.88;;;10.73;100.00
64933;BME280;51446;53.850;10.662;2023-04-23T05:05:50;100541.19;;;10.67;100.00
64933;BME280;51446;53.850;10.662;2023-04-23T05:08:15;100533.94;;;10.47;100.00
64933;BME280;51446;53.850;10.662;2023-04-23T05:10:42;100553.25;;;10.54;100.00
64933;BME280;51446;53.850;10.662;2023-04-23T05:13:08;100541.88;;;10.50;100.00
64933;BME280;51446;53.850;10.662;2023-04-23T05:15:33;100556.44;;;10.33;100.00
64933;BME280;51446;53.850;10.662;2023-04-23T05:17:58;100554.53;;;10.21;100.00
64933;BME280;51446;53.850;10.662;2023-04-23T05:20:24;100556.66;;;10.45;100.00
64933;BME280;51446;53.850;10.662;2023-04-23T05:22:49;100549.81;;;10.58;100.00
64933;BME280;51446;53.850;10.662;2023-04-23T05:25:14;100552.25;;;10.44;100.00
64933;BME280;51446;53.850;10.662;2023-04-23T05:27:40;100564.06;;;10.13;100.00
64933;BME280;51446;53.850;10.662;2023-04-23T05:30:07;100566.88;;;10.30;100.00
64933;BME280;51446;53.850;10.662;2023-04-23T05:32:34;100565.31;;;10.41;100.00
64933;BME280;51446;53.850;10.662;2023-04-23T05:35:00;100574.13;;;10.45;100.00
64933;BME280;51446;53.850;10.662;2023-04-23T05:37:27;100578.25;;;10.29;100.00
64933;BME280;51446;53.850;10.662;2023-04-23T05:39:52;100581.72;;;10.28;100.00
64933;BME280;51446;53.850;10.662;2023-04-23T05:42:17;100593.22;;;10.34;100.00
64933;BME280;51446;53.850;10.662;2023-04-23T05:44:43;100586.75;;;10.14;100.00
64933;BME280;51446;53.850;10.662;2023-04-23T05:47:09;100605.09;;;10.14;100.00
64933;BME280;51446;53.850;10.662;2023-04-23T05:49:35;100611.34;;;10.22;100.00
64933;BME280;51446;53.850;10.662;2023-04-23T05:52:00;100600.53;;;10.00;100.00
64933;BME280;51446;53.850;10.662;2023-04-23T05:54:27;100603.41;;;10.16;100.00
64933;BME280;51446;53.850;10.662;2023-04-23T05:56:52;100611.16;;;10.11;100.00
64933;BME280;51446;53.850;10.662;2023-04-23T05:59:17;100603.47;;;10.22;100.00
64933;BME280;51446;53.850;10.662;2023-04-23T06:01:42;100601.00;;;10.33;100.00
64933;BME280;51446;53.850;10.662;2023-04-23T06:04:08;100604.53;;;10.33;100.00
64933;BME280;51446;53.850;10.662;2023-04-23T06:06:33;100601.09;;;10.34;100.00
64933;BME280;51446;53.850;10.662;2023-04-23T06:08:58;100605.06;;;10.12;100.00
64933;BME280;51446;53.850;10.662;2023-04-23T06:11:23;100598.69;;;9.93;100.00
64933;BME280;51446;53.850;10.662;2023-04-23T06:13:49;100602.19;;;9.95;100.00
64933;BME280;51446;53.850;10.662;2023-04-23T06:16:14;100605.00;;;10.06;100.00
64933;BME280;51446;53.850;10.662;2023-04-23T06:18:39;100609.44;;;10.12;100.00
64933;BME280;51446;53.850;10.662;2023-04-23T06:21:05;100604.16;;;10.09;100.00
64933;BME280;51446;53.850;10.662;2023-04-23T06:23:31;100603.25;;;10.06;100.00
64933;BME280;51446;53.850;10.662;2023-04-23T06:25:57;100607.97;;;10.31;100.00
64933;BME280;51446;53.850;10.662;2023-04-23T06:28:22;100609.50;;;10.16;100.00
64933;BME280;51446;53.850;10.662;2023-04-23T06:30:47;100604.28;;;10.16;100.00
64933;BME280;51446;53.850;10.662;2023-04-23T06:33:13;100610.59;;;10.31;100.00
64933;BME280;51446;53.850;10.662;2023-04-23T06:35:38;100614.22;;;10.36;100.00
64933;BME280;51446;53.850;10.662;2023-04-23T06:38:03;100604.78;;;10.49;100.00
64933;BME280;51446;53.850;10.662;2023-04-23T06:40:29;100609.97;;;10.47;100.00
64933;BME280;51446;53.850;10.662;2023-04-23T06:42:54;100609.38;;;10.68;100.00
64933;BME280;51446;53.850;10.662;2023-04-23T06:45:20;100615.41;;;10.61;100.00
64933;BME280;51446;53.850;10.662;2023-04-23T06:47:45;100611.88;;;10.57;100.00
64933;BME280;51446;53.850;10.662;2023-04-23T06:50:10;100617.63;;;10.33;100.00
64933;BME280;51446;53.850;10.662;2023-04-23T06:52:36;100616.66;;;10.28;100.00
64933;BME280;51446;53.850;10.662;2023-04-23T06:55:01;100625.69;;;10.46;100.00
64933;BME280;51446;53.850;10.662;2023-04-23T06:57:27;100613.81;;;10.72;100.00
64933;BME280;51446;53.850;10.662;2023-04-23T06:59:52;100610.91;;;10.52;100.00
64933;BME280;51446;53.850;10.662;2023-04-23T07:02:17;100603.47;;;10.22;100.00
64933;BME280;51446;53.850;10.662;2023-04-23T07:04:43;100611.84;;;10.56;100.00
64933;BME280;51446;53.850;10.662;2023-04-23T07:07:08;100618.41;;;10.26;100.00
64933;BME280;51446;53.850;10.662;2023-04-23T07:09:33;100621.81;;;10.22;100.00
64933;BME280;51446;53.850;10.662;2023-04-23T07:11:59;100622.19;;;10.45;100.00
64933;BME280;51446;53.850;10.662;2023-04-23T07:14:25;100618.69;;;10.43;100.00
64933;BME280;51446;53.850;10.662;2023-04-23T07:16:50;100612.53;;;10.44;100.00
64933;BME280;51446;53.850;10.662;2023-04-23T07:19:16;100617.81;;;10.47;100.00
64933;BME280;51446;53.850;10.662;2023-04-23T07:21:41;100615.16;;;10.43;100.00
64933;BME280;51446;53.850;10.662;2023-04-23T07:24:06;100609.28;;;10.59;100.00
64933;BME280;51446;53.850;10.662;2023-04-23T07:26:33;100622.72;;;10.25;100.00
64933;BME280;51446;53.850;10.662;2023-04-23T07:28:58;100611.97;;;10.67;100.00
64933;BME280;51446;53.850;10.662;2023-04-23T07:31:23;100616.63;;;10.89;100.00
64933;BME280;51446;53.850;10.662;2023-04-23T07:33:49;100609.53;;;10.79;100.00
64933;BME280;51446;53.850;10.662;2023-04-23T07:36:14;100615.00;;;10.99;100.00
64933;BME280;51446;53.850;10.662;2023-04-23T07:38:39;100617.09;;;11.30;100.00
64933;BME280;51446;53.850;10.662;2023-04-23T07:41:05;100616.31;;;11.40;100.00
64933;BME280;51446;53.850;10.662;2023-04-23T07:43:30;100617.78;;;11.16;100.00
64933;BME280;51446;53.850;10.662;2023-04-23T07:45:55;100618.91;;;11.38;100.00
64933;BME280;51446;53.850;10.662;2023-04-23T07:48:21;100621.13;;;11.00;100.00
64933;BME280;51446;53.850;10.662;2023-04-23T07:50:46;100626.34;;;10.98;100.00
64933;BME280;51446;53.850;10.662;2023-04-23T07:53:11;100628.91;;;10.90;100.00
64933;BME280;51446;53.850;10.662;2023-04-23T07:55:37;100622.25;;;11.23;100.00
64933;BME280;51446;53.850;10.662;2023-04-23T07:58:02;100620.75;;;11.45;100.00
64933;BME280;51446;53.850;10.662;2023-04-23T08:00:27;100619.09;;;11.57;100.00
64933;BME280;51446;53.850;10.662;2023-04-23T08:02:52;100624.28;;;11.52;100.00
64933;BME280;51446;53.850;10.662;2023-04-23T08:05:18;100619.31;;;11.83;100.00
64933;BME280;51446;53.850;10.662;2023-04-23T08:07:43;100620.97;;;11.73;100.00
64933;BME280;51446;53.850;10.662;2023-04-23T08:10:08;100618.19;;;11.53;100.00
64933;BME280;51446;53.850;10.662;2023-04-23T08:12:34;100619.97;;;11.56;100.00
64933;BME280;51446;53.850;10.662;2023-04-23T08:15:00;100612.13;;;11.60;100.00
64933;BME280;51446;53.850;10.662;2023-04-23T08:17:25;100601.94;;;11.94;100.00
64933;BME280;51446;53.850;10.662;2023-04-23T08:19:51;100613.09;;;11.73;100.00
64933;BME280;51446;53.850;10.662;2023-04-23T08:22:16;100601.88;;;11.91;100.00
64933;BME280;51446;53.850;10.662;2023-04-23T08:24:42;100594.22;;;12.22;100.00
64933;BME280;51446;53.850;10.662;2023-04-23T08:27:08;100598.69;;;12.37;100.00
64933;BME280;51446;53.850;10.662;2023-04-23T08:29:33;100595.34;;;12.72;100.00
64933;BME280;51446;53.850;10.662;2023-04-23T08:31:59;100597.09;;;12.70;100.00
64933;BME280;51446;53.850;10.662;2023-04-23T08:34:24;100594.53;;;12.93;100.00
64933;BME280;51446;53.850;10.662;2023-04-23T08:36:50;100600.66;;;12.89;100.00
64933;BME280;51446;53.850;10.662;2023-04-23T08:39:15;100603.50;;;13.56;100.00
64933;BME280;51446;53.850;10.662;2023-04-23T08:41:41;100598.22;;;13.83;100.00
64933;BME280;51446;53.850;10.662;2023-04-23T08:46:42;100606.97;;;13.36;100.00
64933;BME280;51446;53.850;10.662;2023-04-23T08:49:12;100606.13;;;13.76;100.00
64933;BME280;51446;53.850;10.662;2023-04-23T08:51:42;100606.13;;;13.85;100.00
64933;BME280;51446;53.850;10.662;2023-04-23T08:54:15;100599.81;;;14.66;100.00
64933;BME280;51446;53.850;10.662;2023-04-23T08:56:43;100600.53;;;15.08;100.00
64933;BME280;51446;53.850;10.662;2023-04-23T08:59:10;100615.41;;;15.22;100.00
64933;BME280;51446;53.850;10.662;2023-04-23T09:01:36;100610.22;;;15.03;100.00
64933;BME280;51446;53.850;10.662;2023-04-23T09:04:01;100617.06;;;15.40;99.87
64933;BME280;51446;53.850;10.662;2023-04-23T09:06:28;100610.38;;;14.69;100.00
64933;BME280;51446;53.850;10.662;2023-04-23T09:08:54;100609.94;;;15.50;96.89
64933;BME280;51446;53.850;10.662;2023-04-23T09:11:21;100606.78;;;16.13;91.96
64933;BME280;51446;53.850;10.662;2023-04-23T09:13:47;100592.34;;;17.16;81.49
64933;BME280;51446;53.850;10.662;2023-04-23T09:16:13;100594.03;;;17.78;79.45
64933;BME280;51446;53.850;10.662;2023-04-23T09:18:38;100598.66;;;16.32;77.72
64933;BME280;51446;53.850;10.662;2023-04-23T09:21:03;100603.13;;;15.12;96.04
64933;BME280;51446;53.850;10.662;2023-04-23T09:23:29;100601.66;;;15.94;91.79
64933;BME280;51446;53.850;10.662;2023-04-23T09:25:56;100599.19;;;15.71;82.72
64933;BME280;51446;53.850;10.662;2023-04-23T09:28:33;100583.59;;;16.38;81.14
64933;BME280;51446;53.850;10.662;2023-04-23T09:30:58;100589.75;;;16.39;79.79
64933;BME280;51446;53.850;10.662;2023-04-23T09:33:23;100598.53;;;16.45;77.48
64933;BME280;51446;53.850;10.662;2023-04-23T09:35:49;100593.72;;;17.44;71.67
64933;BME280;51446;53.850;10.662;2023-04-23T09:38:14;100589.00;;;17.61;71.67
64933;BME280;51446;53.850;10.662;2023-04-23T09:40:39;100592.84;;;17.99;72.60
64933;BME280;51446;53.850;10.662;2023-04-23T09:43:05;100590.00;;;18.09;68.55
64933;BME280;51446;53.850;10.662;2023-04-23T09:45:34;100585.50;;;18.14;64.21
64933;BME280;51446;53.850;10.662;2023-04-23T09:47:59;100577.19;;;16.61;67.55
64933;BME280;51446;53.850;10.662;2023-04-23T09:50:32;100578.47;;;16.99;73.69
64933;BME280;51446;53.850;10.662;2023-04-23T09:52:57;100571.06;;;17.21;72.13
64933;BME280;51446;53.850;10.662;2023-04-23T09:55:27;100580.41;;;16.85;75.24
64933;BME280;51446;53.850;10.662;2023-04-23T09:57:53;100571.69;;;16.75;76.43
64933;BME280;51446;53.850;10.662;2023-04-23T10:00:19;100571.53;;;16.90;78.75
64933;BME280;51446;53.850;10.662;2023-04-23T10:02:50;100568.13;;;17.41;65.10
64933;BME280;51446;53.850;10.662;2023-04-23T10:05:20;100570.25;;;17.17;63.35
64933;BME280;51446;53.850;10.662;2023-04-23T10:07:46;100562.72;;;18.47;61.04
64933;BME280;51446;53.850;10.662;2023-04-23T10:10:13;100561.84;;;18.01;60.93
64933;BME280;51446;53.850;10.662;2023-04-23T10:12:39;100561.75;;;17.51;59.26
64933;BME280;51446;53.850;10.662;2023-04-23T10:15:06;100558.56;;;18.34;58.28
64933;BME280;51446;53.850;10.662;2023-04-23T10:17:31;100556.69;;;17.39;59.36
64933;BME280;51446;53.850;10.662;2023-04-23T10:19:59;100558.72;;;16.53;67.46
64933;BME280;51446;53.850;10.662;2023-04-23T10:22:29;100556.19;;;18.64;63.23
64933;BME280;51446;53.850;10.662;2023-04-23T10:24:55;100556.22;;;19.04;59.44
64933;BME280;51446;53.850;10.662;2023-04-23T10:27:26;100538.28;;;19.50;54.71
64933;BME280;51446;53.850;10.662;2023-04-23T10:29:52;100555.19;;;19.85;53.75
64933;BME280;51446;53.850;10.662;2023-04-23T10:32:19;100559.09;;;20.69;56.44
64933;BME280;51446;53.850;10.662;2023-04-23T10:34:44;100559.72;;;20.46;52.06
64933;BME280;51446;53.850;10.662;2023-04-23T10:37:10;100560.72;;;21.31;49.54
64933;BME280;51446;53.850;10.662;2023-04-23T10:39:36;100572.47;;;20.98;50.51
64933;BME280;51446;53.850;10.662;2023-04-23T10:42:03;100568.63;;;21.35;46.84
64933;BME280;51446;53.850;10.662;2023-04-23T10:44:34;100571.56;;;22.07;45.15
64933;BME280;51446;53.850;10.662;2023-04-23T10:47:00;100574.56;;;22.96;44.25
64933;BME280;51446;53.850;10.662;2023-04-23T10:49:29;100567.97;;;22.08;43.69
64933;BME280;51446;53.850;10.662;2023-04-23T10:52:17;100566.59;;;22.47;43.57
64933;BME280;51446;53.850;10.662;2023-04-23T10:54:47;100567.91;;;22.84;42.82
64933;BME280;51446;53.850;10.662;2023-04-23T10:57:12;100570.72;;;20.67;46.16
64933;BME280;51446;53.850;10.662;2023-04-23T10:59:39;100562.78;;;22.54;44.32
64933;BME280;51446;53.850;10.662;2023-04-23T11:02:07;100561.25;;;21.16;45.12
64933;BME280;51446;53.850;10.662;2023-04-23T11:04:33;100545.94;;;24.07;40.75
64933;BME280;51446;53.850;10.662;2023-04-23T11:07:09;100540.13;;;23.10;42.87
64933;BME280;51446;53.850;10.662;2023-04-23T11:09:40;100540.78;;;24.02;37.63
64933;BME280;51446;53.850;10.662;2023-04-23T11:14:52;100535.91;;;24.12;38.67
64933;BME280;51446;53.850;10.662;2023-04-23T11:17:23;100530.81;;;23.43;41.00
64933;BME280;51446;53.850;10.662;2023-04-23T11:20:13;100536.41;;;23.59;40.72
64933;BME280;51446;53.850;10.662;2023-04-23T11:22:41;100536.59;;;22.86;41.09
64933;BME280;51446;53.850;10.662;2023-04-23T11:27:41;100541.00;;;22.65;42.95
64933;BME280;51446;53.850;10.662;2023-04-23T11:30:18;100544.28;;;21.45;43.94
64933;BME280;51446;53.850;10.662;2023-04-23T11:32:48;100539.44;;;20.73;47.36
64933;BME280;51446;53.850;10.662;2023-04-23T11:35:15;100534.44;;;22.74;43.03
64933;BME280;51446;53.850;10.662;2023-04-23T11:37:42;100535.94;;;22.81;41.46
64933;BME280;51446;53.850;10.662;2023-04-23T11:40:08;100543.31;;;22.25;42.28
64933;BME280;51446;53.850;10.662;2023-04-23T11:42:49;100541.38;;;21.80;42.62
64933;BME280;51446;53.850;10.662;2023-04-23T11:45:18;100528.81;;;21.28;44.26
64933;BME280;51446;53.850;10.662;2023-04-23T11:47:45;100537.88;;;21.78;45.90
64933;BME280;51446;53.850;10.662;2023-04-23T11:50:17;100532.28;;;21.59;43.76
64933;BME280;51446;53.850;10.662;2023-04-23T11:52:43;100541.81;;;21.93;45.08
64933;BME280;51446;53.850;10.662;2023-04-23T11:55:09;100532.81;;;21.42;44.95
64933;BME280;51446;53.850;10.662;2023-04-23T11:57:47;100534.09;;;21.58;45.97
64933;BME280;51446;53.850;10.662;2023-04-23T12:00:21;100536.25;;;21.99;45.49
64933;BME280;51446;53.850;10.662;2023-04-23T12:05:32;100541.28;;;21.56;44.64
64933;BME280;51446;53.850;10.662;2023-04-23T12:10:31;100542.06;;;23.07;44.19
64933;BME280;51446;53.850;10.662;2023-04-23T12:12:57;100541.22;;;22.35;42.24
64933;BME280;51446;53.850;10.662;2023-04-23T12:15:22;100535.19;;;21.53;43.03
64933;BME280;51446;53.850;10.662;2023-04-23T12:17:49;100533.41;;;21.78;43.70
64933;BME280;51446;53.850;10.662;2023-04-23T12:20:17;100512.75;;;21.58;43.24
64933;BME280;51446;53.850;10.662;2023-04-23T12:22:42;100515.66;;;20.67;45.65
64933;BME280;51446;53.850;10.662;2023-04-23T12:25:08;100519.72;;;20.48;45.07
64933;BME280;51446;53.850;10.662;2023-04-23T12:27:38;100513.28;;;20.86;45.76
64933;BME280;51446;53.850;10.662;2023-04-23T12:30:04;100507.84;;;20.28;47.10
64933;BME280;51446;53.850;10.662;2023-04-23T12:32:32;100501.50;;;21.48;46.72
64933;BME280;51446;53.850;10.662;2023-04-23T12:34:58;100508.56;;;21.51;47.01
64933;BME280;51446;53.850;10.662;2023-04-23T12:37:25;100505.31;;;21.68;45.49
64933;BME280;51446;53.850;10.662;2023-04-23T12:39:50;100511.38;;;21.18;44.63
64933;BME280;51446;53.850;10.662;2023-04-23T12:42:17;100509.16;;;20.76;47.16
64933;BME280;51446;53.850;10.662;2023-04-23T12:44:42;100504.75;;;20.75;49.17